Time;durP1;ratioP1;P1;durP2;ratioP2;P2;SDS_P1;SDS_P2;PMS_P1;PMS_P2;Temp;Humidity;BMP_temperature;BMP_pressure;BME280_temperature;BME280_humidity;BME280_pressure;Samples;Min_cycle;Max_cycle;Signal;HPM_P1;HPM_P2
2023/10/26 00:01:17;;;;;;;15.20;10.48;;;;;;;;;;5076301;28;20052;-61
2023/10/26 00:03:43;;;;;;;13.93;11.10;;;;;;;;;;5090624;28;20058;-61
2023/10/26 00:06:10;;;;;;;16.98;12.43;;;;;;;;;;5113648;28;20114;-61
2023/10/26 00:08:37;;;;;;;16.38;12.13;;;;;;;;;;5100001;28;20051;-61
2023/10/26 00:11:04;;;;;;;18.83;13.52;;;;;;;;;;5091296;28;20048;-61
2023/10/26 00:13:31;;;;;;;22.73;13.77;;;;;;;;;;5084089;28;20052;-61
2023/10/26 00:15:59;;;;;;;18.42;13.70;;;;;;;;;;5078762;28;20048;-60
2023/10/26 00:18:26;;;;;;;18.80;14.63;;;;;;;;;;5079073;28;20079;-61
2023/10/26 00:20:56;;;;;;;19.60;14.35;;;;;;;;;;5091530;28;20048;-61
2023/10/26 00:23:23;;;;;;;20.20;15.65;;;;;;;;;;5075919;28;20143;-61
2023/10/26 00:25:49;;;;;;;20.58;15.73;;;;;;;;;;5083497;28;20059;-61
2023/10/26 00:28:19;;;;;;;21.90;14.57;;;;;;;;;;5093098;28;20048;-61
2023/10/26 00:30:48;;;;;;;15.57;12.90;;;;;;;;;;5084326;28;20401;-61
2023/10/26 00:33:17;;;;;;;17.27;13.57;;;;;;;;;;5076902;28;20056;-61
2023/10/26 00:35:47;;;;;;;15.23;12.50;;;;;;;;;;5091638;28;20047;-61
2023/10/26 00:38:17;;;;;;;14.68;12.63;;;;;;;;;;5093057;28;20052;-61
2023/10/26 00:40:44;;;;;;;15.73;13.10;;;;;;;;;;5084988;28;20404;-61
2023/10/26 00:43:19;;;;;;;15.13;13.02;;;;;;;;;;5078786;28;20059;-61
2023/10/26 00:45:46;;;;;;;12.27;10.98;;;;;;;;;;5071005;28;20056;-61
2023/10/26 00:48:14;;;;;;;13.52;11.45;;;;;;;;;;5074213;28;20057;-61
2023/10/26 00:50:45;;;;;;;13.60;11.57;;;;;;;;;;5078758;28;20393;-61
2023/10/26 00:53:15;;;;;;;14.02;11.52;;;;;;;;;;5091195;28;20481;-62
2023/10/26 00:55:42;;;;;;;12.73;11.13;;;;;;;;;;5073399;28;20048;-61
2023/10/26 00:58:09;;;;;;;14.73;12.18;;;;;;;;;;5072508;28;20052;-61
2023/10/26 01:00:41;;;;;;;14.65;12.52;;;;;;;;;;5077929;28;20490;-61
2023/10/26 01:03:08;;;;;;;15.50;13.20;;;;;;;;;;5073293;28;20054;-61
2023/10/26 01:05:35;;;;;;;15.38;13.48;;;;;;;;;;5081028;28;20048;-61
2023/10/26 01:08:03;;;;;;;16.83;14.23;;;;;;;;;;5092022;28;20063;-61
2023/10/26 01:10:33;;;;;;;16.65;14.85;;;;;;;;;;5081945;28;20048;-61
2023/10/26 01:13:00;;;;;;;19.95;16.08;;;;;;;;;;5077824;28;20052;-61
2023/10/26 01:15:27;;;;;;;20.40;16.92;;;;;;;;;;5081760;28;20052;-62
2023/10/26 01:17:54;;;;;;;19.10;15.65;;;;;;;;;;5079054;28;20052;-60
2023/10/26 01:20:21;;;;;;;18.65;15.27;;;;;;;;;;5090476;28;20052;-61
2023/10/26 01:22:49;;;;;;;15.25;13.02;;;;;;;;;;5091158;28;20420;-61
2023/10/26 01:25:15;;;;;;;14.88;11.88;;;;;;;;;;5079012;28;20469;-60
2023/10/26 01:27:42;;;;;;;15.85;12.77;;;;;;;;;;5079174;28;20048;-61
2023/10/26 01:30:12;;;;;;;14.45;12.68;;;;;;;;;;5071034;28;20064;-60
2023/10/26 01:32:39;;;;;;;16.67;12.20;;;;;;;;;;5086083;28;20508;-62
2023/10/26 01:35:06;;;;;;;16.33;13.70;;;;;;;;;;5090186;28;20048;-61
2023/10/26 01:37:33;;;;;;;15.65;12.68;;;;;;;;;;5074589;28;20518;-60
2023/10/26 01:40:01;;;;;;;13.32;11.07;;;;;;;;;;5072785;28;20412;-60
2023/10/26 01:42:28;;;;;;;13.18;11.25;;;;;;;;;;5071164;28;20048;-60
2023/10/26 01:44:55;;;;;;;12.05;10.75;;;;;;;;;;5071146;28;20052;-61
2023/10/26 01:47:22;;;;;;;12.32;10.85;;;;;;;;;;5073828;28;20524;-60
2023/10/26 01:49:48;;;;;;;13.32;10.60;;;;;;;;;;5071057;28;20049;-60
2023/10/26 01:52:18;;;;;;;13.70;11.23;;;;;;;;;;5071699;28;20048;-60
2023/10/26 01:54:46;;;;;;;14.57;11.80;;;;;;;;;;5071905;28;20063;-61
2023/10/26 01:57:14;;;;;;;14.40;10.90;;;;;;;;;;5081850;28;20048;-61
2023/10/26 01:59:41;;;;;;;13.85;11.30;;;;;;;;;;5088732;28;21609;-61
2023/10/26 02:02:10;;;;;;;14.02;11.43;;;;;;;;;;5074689;28;20048;-61
2023/10/26 02:04:39;;;;;;;13.38;10.75;;;;;;;;;;5081052;28;20052;-60
2023/10/26 02:07:09;;;;;;;12.52;10.85;;;;;;;;;;5070778;28;20061;-61
2023/10/26 02:09:35;;;;;;;14.77;11.52;;;;;;;;;;5071237;28;20044;-61
2023/10/26 02:12:04;;;;;;;14.98;10.35;;;;;;;;;;5075253;28;20060;-60
2023/10/26 02:14:32;;;;;;;12.55;10.60;;;;;;;;;;5091916;28;20071;-60
2023/10/26 02:16:59;;;;;;;11.45;10.18;;;;;;;;;;5093705;28;20052;-61
2023/10/26 02:19:26;;;;;;;12.55;9.88;;;;;;;;;;5088013;28;20072;-60
2023/10/26 02:21:53;;;;;;;10.75;9.65;;;;;;;;;;5094448;28;20480;-61
2023/10/26 02:24:19;;;;;;;11.25;9.70;;;;;;;;;;5089301;28;20067;-60
2023/10/26 02:26:46;;;;;;;10.68;9.10;;;;;;;;;;5081003;28;20071;-60
2023/10/26 02:29:13;;;;;;;11.52;10.30;;;;;;;;;;5091262;28;20062;-61
2023/10/26 02:31:41;;;;;;;10.18;9.18;;;;;;;;;;5093703;28;20063;-61
2023/10/26 02:34:08;;;;;;;9.95;8.85;;;;;;;;;;5084946;28;20071;-61
2023/10/26 02:36:35;;;;;;;10.05;9.02;;;;;;;;;;5075655;28;20048;-60
2023/10/26 02:39:01;;;;;;;10.70;9.38;;;;;;;;;;5089493;28;20051;-61
2023/10/26 02:41:28;;;;;;;9.40;8.40;;;;;;;;;;5075225;28;20060;-61
2023/10/26 02:43:55;;;;;;;9.40;8.50;;;;;;;;;;5074016;28;20060;-61
2023/10/26 02:46:23;;;;;;;9.40;8.40;;;;;;;;;;5075164;28;20044;-60
2023/10/26 02:48:51;;;;;;;9.57;8.57;;;;;;;;;;5076845;28;20527;-61
2023/10/26 02:51:18;;;;;;;9.43;8.48;;;;;;;;;;5083172;28;20063;-61
2023/10/26 02:53:45;;;;;;;9.48;7.72;;;;;;;;;;5093860;28;20131;-60
2023/10/26 02:56:12;;;;;;;10.10;9.10;;;;;;;;;;5078554;28;20044;-60
2023/10/26 02:58:38;;;;;;;9.93;8.93;;;;;;;;;;5073033;28;20060;-61
2023/10/26 03:01:04;;;;;;;8.85;7.95;;;;;;;;;;5074412;28;20052;-61
2023/10/26 03:03:31;;;;;;;9.38;8.48;;;;;;;;;;5073893;28;20055;-61
2023/10/26 03:06:00;;;;;;;9.68;8.50;;;;;;;;;;5085062;28;20048;-61
2023/10/26 03:08:27;;;;;;;9.40;8.50;;;;;;;;;;5074921;28;20049;-62
2023/10/26 03:10:54;;;;;;;9.43;8.52;;;;;;;;;;5073973;28;20430;-61
2023/10/26 03:13:20;;;;;;;8.95;8.05;;;;;;;;;;5080513;28;20048;-62
2023/10/26 03:15:47;;;;;;;8.93;7.93;;;;;;;;;;5074259;28;20056;-61
2023/10/26 03:18:14;;;;;;;10.07;8.98;;;;;;;;;;5073742;28;20056;-62
2023/10/26 03:20:41;;;;;;;10.90;8.68;;;;;;;;;;5075902;28;20049;-61
2023/10/26 03:23:12;;;;;;;11.85;9.98;;;;;;;;;;5073420;28;20052;-61
2023/10/26 03:25:39;;;;;;;10.85;9.75;;;;;;;;;;5075946;28;20052;-62
2023/10/26 03:28:08;;;;;;;11.43;10.23;;;;;;;;;;5088953;28;20052;-62
2023/10/26 03:30:36;;;;;;;10.57;9.48;;;;;;;;;;5070185;28;20055;-62
2023/10/26 03:33:05;;;;;;;12.10;10.50;;;;;;;;;;5076719;28;20062;-62
2023/10/26 03:35:33;;;;;;;13.27;10.93;;;;;;;;;;5087829;28;20055;-60
2023/10/26 03:38:00;;;;;;;14.70;11.23;;;;;;;;;;5079789;28;20056;-61
2023/10/26 03:40:28;;;;;;;11.32;10.23;;;;;;;;;;5089337;28;20162;-60
2023/10/26 03:42:55;;;;;;;12.65;11.20;;;;;;;;;;5092263;28;20048;-60
2023/10/26 03:45:26;;;;;;;12.05;10.73;;;;;;;;;;5076283;28;20049;-62
2023/10/26 03:47:53;;;;;;;11.65;10.45;;;;;;;;;;5072005;28;20517;-62
2023/10/26 03:50:20;;;;;;;11.45;10.35;;;;;;;;;;5071947;28;20052;-61
2023/10/26 03:52:47;;;;;;;11.20;10.00;;;;;;;;;;5091836;28;20052;-60
2023/10/26 03:55:13;;;;;;;12.40;10.80;;;;;;;;;;5087524;28;20040;-61
2023/10/26 03:57:41;;;;;;;13.05;11.57;;;;;;;;;;5075159;28;20071;-61
2023/10/26 04:00:09;;;;;;;13.25;11.25;;;;;;;;;;5075675;28;20166;-61
2023/10/26 04:02:36;;;;;;;12.93;11.55;;;;;;;;;;5090536;28;20048;-61
2023/10/26 04:05:04;;;;;;;13.23;11.77;;;;;;;;;;5093495;28;20052;-61
2023/10/26 04:07:31;;;;;;;14.25;11.93;;;;;;;;;;5077525;28;20401;-61
2023/10/26 04:09:57;;;;;;;12.60;11.32;;;;;;;;;;5076082;28;20052;-61
2023/10/26 04:12:24;;;;;;;13.93;11.95;;;;;;;;;;5083138;28;20048;-61
2023/10/26 04:14:52;;;;;;;13.10;11.75;;;;;;;;;;5085808;28;20048;-61
2023/10/26 04:17:19;;;;;;;15.45;12.57;;;;;;;;;;5090847;28;20055;-61
2023/10/26 04:19:46;;;;;;;14.45;12.80;;;;;;;;;;5079895;28;20052;-61
2023/10/26 04:22:13;;;;;;;15.65;12.82;;;;;;;;;;5091601;28;20047;-61
2023/10/26 04:24:40;;;;;;;15.57;13.00;;;;;;;;;;5092313;28;20056;-61
2023/10/26 04:27:06;;;;;;;15.95;13.27;;;;;;;;;;5082446;28;20068;-61
2023/10/26 04:29:33;;;;;;;15.05;13.38;;;;;;;;;;5079396;28;20115;-61
2023/10/26 04:32:01;;;;;;;16.73;13.48;;;;;;;;;;5092034;28;20048;-61
2023/10/26 04:34:28;;;;;;;15.93;14.20;;;;;;;;;;5092808;28;20063;-61
2023/10/26 04:36:55;;;;;;;15.10;13.50;;;;;;;;;;5074159;28;20068;-61
2023/10/26 04:39:22;;;;;;;14.50;13.00;;;;;;;;;;5088640;28;20075;-61
2023/10/26 04:41:49;;;;;;;14.15;12.70;;;;;;;;;;5101673;28;20505;-61
2023/10/26 04:44:17;;;;;;;14.95;13.30;;;;;;;;;;5090327;28;20052;-62
2023/10/26 04:46:44;;;;;;;14.90;13.30;;;;;;;;;;5093302;28;20050;-62
2023/10/26 04:49:12;;;;;;;14.70;13.15;;;;;;;;;;5087485;28;20056;-62
2023/10/26 04:51:39;;;;;;;15.00;13.40;;;;;;;;;;5090437;28;20395;-62
2023/10/26 04:54:06;;;;;;;15.27;13.65;;;;;;;;;;5092126;28;20135;-61
2023/10/26 04:56:33;;;;;;;15.20;13.45;;;;;;;;;;5084785;28;20405;-62
2023/10/26 04:58:59;;;;;;;14.82;12.50;;;;;;;;;;5092536;28;20508;-61
2023/10/26 05:01:26;;;;;;;13.95;12.27;;;;;;;;;;5087499;28;20527;-62
2023/10/26 05:03:53;;;;;;;15.10;13.30;;;;;;;;;;5074446;28;20059;-61
2023/10/26 05:06:22;;;;;;;14.07;12.68;;;;;;;;;;5090351;28;20044;-61
2023/10/26 05:08:48;;;;;;;15.52;13.25;;;;;;;;;;5082038;28;20060;-61
2023/10/26 05:11:15;;;;;;;15.85;14.15;;;;;;;;;;5089476;28;20074;-61
2023/10/26 05:13:42;;;;;;;14.50;13.00;;;;;;;;;;5089209;28;20155;-61
2023/10/26 05:16:09;;;;;;;15.55;13.93;;;;;;;;;;5083412;28;20378;-62
2023/10/26 05:18:36;;;;;;;15.10;13.50;;;;;;;;;;5081455;28;20048;-61
2023/10/26 05:21:03;;;;;;;14.35;12.95;;;;;;;;;;5088764;28;20496;-61
2023/10/26 05:23:31;;;;;;;15.00;13.40;;;;;;;;;;5077530;28;20052;-60
2023/10/26 05:25:58;;;;;;;14.90;13.25;;;;;;;;;;5088610;28;20396;-62
2023/10/26 05:28:24;;;;;;;14.52;12.60;;;;;;;;;;5083832;28;20060;-62
2023/10/26 05:30:51;;;;;;;15.55;13.65;;;;;;;;;;5083884;28;20394;-61
2023/10/26 05:33:18;;;;;;;16.35;13.38;;;;;;;;;;5088587;28;20048;-61
2023/10/26 05:35:45;;;;;;;17.98;14.90;;;;;;;;;;5076753;28;20154;-61
2023/10/26 05:38:12;;;;;;;15.00;13.10;;;;;;;;;;5081817;28;20056;-60
2023/10/26 05:40:40;;;;;;;17.13;14.32;;;;;;;;;;5091749;28;20056;-60
2023/10/26 05:43:06;;;;;;;15.57;13.93;;;;;;;;;;5090649;28;20052;-61
2023/10/26 05:45:39;;;;;;;16.90;14.32;;;;;;;;;;5090441;28;20056;-60
2023/10/26 05:48:08;;;;;;;16.75;14.52;;;;;;;;;;5077405;28;20079;-60
2023/10/26 05:50:35;;;;;;;17.67;14.20;;;;;;;;;;5087919;28;20413;-60
2023/10/26 05:53:02;;;;;;;16.75;14.95;;;;;;;;;;5095176;28;20056;-60
2023/10/26 05:55:29;;;;;;;16.10;14.05;;;;;;;;;;5095096;28;20056;-60
2023/10/26 05:57:57;;;;;;;17.05;14.35;;;;;;;;;;5095728;28;20055;-60
2023/10/26 06:00:25;;;;;;;18.02;14.70;;;;;;;;;;5094241;28;20068;-62
2023/10/26 06:02:52;;;;;;;20.73;16.63;;;;;;;;;;5076360;28;20052;-61
2023/10/26 06:05:19;;;;;;;18.13;16.10;;;;;;;;;;5075271;28;20048;-61
2023/10/26 06:07:46;;;;;;;18.88;14.55;;;;;;;;;;5095738;28;20044;-60
2023/10/26 06:10:12;;;;;;;18.45;15.43;;;;;;;;;;5095656;28;20392;-61
2023/10/26 06:12:39;;;;;;;17.65;15.45;;;;;;;;;;5095841;28;20071;-61
2023/10/26 06:15:08;;;;;;;15.90;13.50;;;;;;;;;;5095973;28;20049;-63
2023/10/26 06:17:35;;;;;;;16.50;14.43;;;;;;;;;;5078556;28;20045;-61
2023/10/26 06:20:02;;;;;;;15.88;13.75;;;;;;;;;;5075728;28;20064;-61
2023/10/26 06:22:28;;;;;;;17.88;15.65;;;;;;;;;;5075567;28;20055;-61
2023/10/26 06:24:55;;;;;;;16.83;15.02;;;;;;;;;;5075264;28;20374;-61
2023/10/26 06:27:22;;;;;;;16.80;15.00;;;;;;;;;;5074977;28;20053;-62
2023/10/26 06:29:50;;;;;;;17.42;15.57;;;;;;;;;;5078738;28;20373;-60
2023/10/26 06:32:19;;;;;;;17.85;15.95;;;;;;;;;;5077953;28;20059;-60
2023/10/26 06:34:45;;;;;;;18.98;16.80;;;;;;;;;;5075204;28;20056;-61
2023/10/26 06:37:12;;;;;;;20.92;16.80;;;;;;;;;;5074881;28;20049;-60
2023/10/26 06:39:39;;;;;;;18.05;16.13;;;;;;;;;;5075302;28;20052;-60
2023/10/26 06:42:06;;;;;;;20.98;17.52;;;;;;;;;;5074888;28;20427;-60
2023/10/26 06:44:32;;;;;;;22.15;18.05;;;;;;;;;;5074484;28;20048;-60
2023/10/26 06:46:59;;;;;;;25.45;19.55;;;;;;;;;;5091962;28;20496;-60
2023/10/26 06:49:27;;;;;;;24.42;20.10;;;;;;;;;;5094968;28;20056;-61
2023/10/26 06:51:54;;;;;;;23.20;19.50;;;;;;;;;;5095293;28;20059;-60
2023/10/26 06:54:21;;;;;;;23.27;19.48;;;;;;;;;;5094410;28;20489;-60
2023/10/26 06:56:48;;;;;;;23.77;20.35;;;;;;;;;;5095175;28;20484;-60
2023/10/26 06:59:15;;;;;;;24.65;20.58;;;;;;;;;;5094978;28;20474;-60
2023/10/26 07:01:42;;;;;;;24.05;19.73;;;;;;;;;;5078281;28;20082;-61
2023/10/26 07:04:09;;;;;;;23.55;19.48;;;;;;;;;;5074771;28;20064;-61
2023/10/26 07:06:37;;;;;;;26.77;21.88;;;;;;;;;;5075039;28;20053;-62
2023/10/26 07:09:03;;;;;;;25.88;20.58;;;;;;;;;;5089145;28;20485;-60
2023/10/26 07:11:31;;;;;;;24.67;21.00;;;;;;;;;;5094288;28;20060;-61
2023/10/26 07:13:58;;;;;;;27.48;21.60;;;;;;;;;;5094944;28;20417;-61
2023/10/26 07:16:25;;;;;;;31.73;21.92;;;;;;;;;;5093318;28;20056;-59
2023/10/26 07:18:52;;;;;;;24.73;19.45;;;;;;;;;;5094150;28;20079;-61
2023/10/26 07:21:18;;;;;;;26.98;21.08;;;;;;;;;;5094534;28;20056;-61
2023/10/26 07:23:46;;;;;;;24.73;20.17;;;;;;;;;;5094310;28;20048;-62
2023/10/26 07:26:15;;;;;;;29.52;21.23;;;;;;;;;;5094647;28;20496;-61
2023/10/26 07:28:42;;;;;;;28.67;22.15;;;;;;;;;;5114713;28;20054;-59
2023/10/26 07:31:09;;;;;;;29.08;22.02;;;;;;;;;;5128878;27;20047;-59
2023/10/26 07:33:36;;;;;;;30.88;22.55;;;;;;;;;;5135438;27;20047;-61
2023/10/26 07:36:03;;;;;;;29.08;22.00;;;;;;;;;;5135361;27;20051;-59
2023/10/26 07:38:30;;;;;;;32.28;23.63;;;;;;;;;;5134827;27;20054;-60
2023/10/26 07:41:00;;;;;;;31.60;23.15;;;;;;;;;;5127563;27;20051;-59
2023/10/26 07:43:26;;;;;;;35.00;24.77;;;;;;;;;;5114393;28;20365;-60
2023/10/26 07:45:53;;;;;;;33.53;24.48;;;;;;;;;;5124207;27;20065;-60
2023/10/26 07:48:20;;;;;;;34.55;25.13;;;;;;;;;;5110369;27;20059;-60
2023/10/26 07:50:47;;;;;;;34.38;24.17;;;;;;;;;;5093510;28;20056;-60
2023/10/26 07:53:14;;;;;;;33.20;23.33;;;;;;;;;;5093901;28;20507;-59
2023/10/26 07:55:41;;;;;;;33.30;24.00;;;;;;;;;;5094034;28;20059;-60
2023/10/26 07:58:09;;;;;;;35.70;23.77;;;;;;;;;;5093748;28;20052;-60
2023/10/26 08:00:37;;;;;;;37.45;24.55;;;;;;;;;;5089945;28;20048;-60
2023/10/26 08:03:04;;;;;;;34.60;24.92;;;;;;;;;;5093641;28;20059;-60
2023/10/26 08:05:30;;;;;;;40.30;25.80;;;;;;;;;;5093775;28;20051;-60
2023/10/26 08:07:58;;;;;;;35.28;24.92;;;;;;;;;;5088351;28;20044;-60
2023/10/26 08:10:25;;;;;;;38.95;25.88;;;;;;;;;;5072543;28;20057;-60
2023/10/26 08:12:52;;;;;;;36.13;25.25;;;;;;;;;;5073444;28;20061;-60
2023/10/26 08:15:21;;;;;;;39.85;26.60;;;;;;;;;;5062133;28;20048;-59
2023/10/26 08:17:48;;;;;;;35.90;25.52;;;;;;;;;;5053410;28;20053;-59
2023/10/26 08:20:15;;;;;;;36.28;24.92;;;;;;;;;;5053466;28;20057;-60
2023/10/26 08:22:42;;;;;;;37.92;25.77;;;;;;;;;;5053102;28;20052;-60
2023/10/26 08:25:09;;;;;;;34.80;25.52;;;;;;;;;;5053142;28;20087;-59
2023/10/26 08:27:36;;;;;;;33.65;24.15;;;;;;;;;;5053137;28;20060;-60
2023/10/26 08:30:03;;;;;;;40.25;26.83;;;;;;;;;;5054325;28;20053;-60
2023/10/26 08:32:31;;;;;;;35.45;25.23;;;;;;;;;;5053026;28;20056;-60
2023/10/26 08:34:58;;;;;;;36.13;25.98;;;;;;;;;;5052969;28;20071;-59
2023/10/26 08:37:27;;;;;;;36.53;25.38;;;;;;;;;;5072709;28;20052;-59
2023/10/26 08:39:54;;;;;;;36.78;26.63;;;;;;;;;;5073099;28;20061;-61
2023/10/26 08:42:20;;;;;;;36.10;26.35;;;;;;;;;;5072969;28;20063;-61
2023/10/26 08:44:48;;;;;;;33.33;24.85;;;;;;;;;;5080210;28;20047;-60
2023/10/26 08:47:17;;;;;;;35.45;27.17;;;;;;;;;;5094562;28;20052;-59
2023/10/26 08:49:46;;;;;;;35.05;25.05;;;;;;;;;;5113707;28;20976;-59
2023/10/26 08:52:12;;;;;;;35.40;24.97;;;;;;;;;;5113041;28;20086;-62
2023/10/26 08:54:39;;;;;;;36.90;25.20;;;;;;;;;;5113063;28;20484;-61
2023/10/26 08:57:07;;;;;;;34.05;24.55;;;;;;;;;;5112937;28;20051;-61
2023/10/26 08:59:34;;;;;;;30.65;23.17;;;;;;;;;;5108852;28;20047;-61
2023/10/26 09:02:01;;;;;;;31.33;23.42;;;;;;;;;;5113016;28;20056;-61
2023/10/26 09:04:28;;;;;;;30.83;23.65;;;;;;;;;;5113192;28;20052;-61
2023/10/26 09:06:56;;;;;;;32.42;22.73;;;;;;;;;;5113287;28;20055;-61
2023/10/26 09:09:23;;;;;;;30.65;22.92;;;;;;;;;;5094052;28;20052;-59
2023/10/26 09:11:50;;;;;;;28.33;21.88;;;;;;;;;;5092930;28;20058;-61
2023/10/26 09:14:17;;;;;;;28.15;21.20;;;;;;;;;;5089896;28;20048;-60
2023/10/26 09:16:45;;;;;;;26.00;21.08;;;;;;;;;;5072460;28;20052;-59
2023/10/26 09:19:12;;;;;;;26.60;20.23;;;;;;;;;;5072242;28;20536;-60
2023/10/26 09:21:49;;;;;;;26.45;19.83;;;;;;;;;;5072566;28;20060;-60
2023/10/26 09:24:24;;;;;;;26.92;20.27;;;;;;;;;;5072574;28;20076;-59
2023/10/26 09:26:52;;;;;;;27.80;20.80;;;;;;;;;;5072232;28;20075;-59
2023/10/26 09:29:19;;;;;;;27.50;20.30;;;;;;;;;;5081450;28;20048;-60
2023/10/26 09:31:53;;;;;;;26.52;19.50;;;;;;;;;;5093925;28;20056;-60
2023/10/26 09:34:21;;;;;;;22.42;18.02;;;;;;;;;;5072092;28;20067;-59
2023/10/26 09:37:01;;;;;;;22.00;16.98;;;;;;;;;;5072160;28;20048;-60
2023/10/26 09:39:31;;;;;;;23.85;18.70;;;;;;;;;;5084745;28;20048;-60
2023/10/26 09:42:00;;;;;;;23.90;17.08;;;;;;;;;;5092627;28;20048;-60
2023/10/26 09:44:26;;;;;;;21.07;16.60;;;;;;;;;;5088182;28;20044;-60
2023/10/26 09:46:53;;;;;;;21.75;16.80;;;;;;;;;;5092065;28;20060;-59
2023/10/26 09:49:21;;;;;;;22.92;16.90;;;;;;;;;;5071677;28;20059;-60
2023/10/26 09:51:48;;;;;;;20.60;16.17;;;;;;;;;;5071809;28;20052;-59
2023/10/26 09:54:15;;;;;;;17.95;15.05;;;;;;;;;;5072156;28;20390;-61
2023/10/26 09:56:46;;;;;;;17.80;13.63;;;;;;;;;;5072212;28;20401;-60
2023/10/26 09:59:13;;;;;;;18.45;15.35;;;;;;;;;;5070991;28;20071;-60
2023/10/26 10:01:40;;;;;;;18.70;14.15;;;;;;;;;;5068704;28;20053;-60
2023/10/26 10:04:09;;;;;;;18.63;14.45;;;;;;;;;;5051862;28;20060;-60
2023/10/26 10:06:48;;;;;;;16.33;13.43;;;;;;;;;;5052369;28;20049;-60
2023/10/26 10:09:17;;;;;;;17.65;14.43;;;;;;;;;;5068075;28;20052;-60
2023/10/26 10:11:45;;;;;;;16.13;12.80;;;;;;;;;;5071723;28;20063;-61
2023/10/26 10:14:27;;;;;;;18.25;13.77;;;;;;;;;;5057180;28;20443;-60
2023/10/26 10:16:54;;;;;;;17.65;14.68;;;;;;;;;;5076677;28;20385;-60
2023/10/26 10:19:21;;;;;;;18.17;14.48;;;;;;;;;;5072042;28;20056;-60
2023/10/26 10:21:48;;;;;;;16.35;13.23;;;;;;;;;;5071702;28;20052;-59
2023/10/26 10:24:34;;;;;;;18.00;14.07;;;;;;;;;;5071616;28;20056;-60
2023/10/26 10:27:11;;;;;;;14.60;12.35;;;;;;;;;;5071790;28;20049;-61
2023/10/26 10:29:40;;;;;;;16.58;13.48;;;;;;;;;;5057317;28;20045;-61
2023/10/26 10:32:10;;;;;;;17.73;13.38;;;;;;;;;;5051546;28;20417;-61
2023/10/26 10:34:42;;;;;;;15.48;12.63;;;;;;;;;;5053383;28;20056;-61
2023/10/26 10:37:12;;;;;;;14.93;12.63;;;;;;;;;;5055577;28;20057;-61
2023/10/26 10:39:39;;;;;;;14.05;11.88;;;;;;;;;;5069320;28;20052;-61
2023/10/26 10:42:09;;;;;;;15.32;12.05;;;;;;;;;;5075420;28;20076;-61
2023/10/26 10:44:38;;;;;;;15.20;12.70;;;;;;;;;;5059496;28;20053;-61
2023/10/26 10:47:05;;;;;;;15.27;12.45;;;;;;;;;;5074702;28;20060;-61
2023/10/26 10:49:31;;;;;;;14.32;11.60;;;;;;;;;;5095020;28;20058;-61
2023/10/26 10:51:58;;;;;;;12.32;10.65;;;;;;;;;;5095097;28;20397;-61
2023/10/26 10:54:25;;;;;;;12.70;11.32;;;;;;;;;;5094926;28;20071;-61
2023/10/26 10:56:54;;;;;;;11.67;9.77;;;;;;;;;;5095561;28;20473;-59
2023/10/26 10:59:22;;;;;;;13.48;11.30;;;;;;;;;;5103560;28;20158;-60
2023/10/26 11:01:51;;;;;;;12.73;10.98;;;;;;;;;;5115350;28;20059;-59
2023/10/26 11:04:17;;;;;;;12.02;10.68;;;;;;;;;;5115168;28;20057;-59
2023/10/26 11:06:45;;;;;;;11.05;10.00;;;;;;;;;;5115335;28;20477;-60
2023/10/26 11:09:25;;;;;;;12.00;10.80;;;;;;;;;;5115080;28;20051;-60
2023/10/26 11:11:52;;;;;;;11.93;10.73;;;;;;;;;;5115201;28;20048;-60
2023/10/26 11:14:20;;;;;;;12.63;11.10;;;;;;;;;;5087393;28;20406;-61
2023/10/26 11:16:47;;;;;;;14.60;13.10;;;;;;;;;;5074580;28;20497;-61
2023/10/26 11:19:16;;;;;;;13.68;12.27;;;;;;;;;;5074562;28;20401;-60
2023/10/26 11:21:42;;;;;;;13.32;11.02;;;;;;;;;;5074343;28;20055;-60
2023/10/26 11:24:09;;;;;;;13.25;11.80;;;;;;;;;;5074408;28;20056;-60
2023/10/26 11:26:36;;;;;;;14.68;11.15;;;;;;;;;;5074376;28;20059;-60
2023/10/26 11:29:04;;;;;;;15.02;12.50;;;;;;;;;;5096667;28;20047;-60
2023/10/26 11:31:39;;;;;;;14.55;13.05;;;;;;;;;;5115065;28;20055;-62
2023/10/26 11:34:06;;;;;;;13.55;12.13;;;;;;;;;;5115020;28;20055;-60
2023/10/26 11:36:36;;;;;;;15.95;14.35;;;;;;;;;;5111145;28;20051;-60
2023/10/26 11:39:03;;;;;;;16.75;15.05;;;;;;;;;;5094396;28;20048;-59
2023/10/26 11:41:30;;;;;;;15.65;13.98;;;;;;;;;;5094481;28;20052;-59
2023/10/26 11:43:57;;;;;;;17.30;14.77;;;;;;;;;;5100187;28;20043;-60
2023/10/26 11:46:34;;;;;;;17.27;14.82;;;;;;;;;;5113610;28;20067;-61
2023/10/26 11:49:01;;;;;;;15.43;13.50;;;;;;;;;;5099689;28;20052;-61
2023/10/26 11:51:29;;;;;;;13.88;11.23;;;;;;;;;;5093990;28;20048;-61
2023/10/26 11:53:57;;;;;;;12.77;11.30;;;;;;;;;;5093776;28;20416;-60
2023/10/26 11:56:24;;;;;;;13.27;11.75;;;;;;;;;;5093468;28;20055;-60
2023/10/26 11:58:51;;;;;;;12.07;10.40;;;;;;;;;;5082002;28;20053;-61
2023/10/26 12:01:18;;;;;;;13.30;11.02;;;;;;;;;;5073553;28;20406;-61
2023/10/26 12:03:47;;;;;;;14.35;11.80;;;;;;;;;;5073695;28;20057;-61
2023/10/26 12:06:14;;;;;;;9.97;8.70;;;;;;;;;;5073858;28;20413;-61
2023/10/26 12:08:41;;;;;;;11.30;9.75;;;;;;;;;;5073867;28;20052;-61
2023/10/26 12:11:09;;;;;;;11.32;10.07;;;;;;;;;;5073873;28;20052;-61
2023/10/26 12:13:36;;;;;;;10.52;9.43;;;;;;;;;;5074481;28;20393;-61
2023/10/26 12:16:03;;;;;;;11.20;8.90;;;;;;;;;;5073457;28;20056;-61
2023/10/26 12:18:30;;;;;;;9.10;8.20;;;;;;;;;;5073652;28;20057;-61
2023/10/26 12:20:57;;;;;;;9.43;8.45;;;;;;;;;;5073269;28;20409;-61
2023/10/26 12:23:24;;;;;;;9.23;8.15;;;;;;;;;;5073417;28;20044;-61
2023/10/26 12:25:51;;;;;;;8.55;7.68;;;;;;;;;;5073012;28;20056;-61
2023/10/26 12:28:19;;;;;;;9.38;8.35;;;;;;;;;;5083630;28;20052;-61
2023/10/26 12:30:46;;;;;;;8.48;7.68;;;;;;;;;;5093406;28;20048;-61
2023/10/26 12:33:13;;;;;;;9.63;8.63;;;;;;;;;;5093437;28;20059;-61
2023/10/26 12:35:40;;;;;;;8.85;7.85;;;;;;;;;;5108148;28;20052;-62
2023/10/26 12:38:07;;;;;;;9.73;7.93;;;;;;;;;;5093457;28;20481;-62
2023/10/26 12:40:34;;;;;;;11.50;8.95;;;;;;;;;;5093508;28;20051;-61
2023/10/26 12:43:01;;;;;;;8.35;7.13;;;;;;;;;;5086354;28;20053;-61
2023/10/26 12:45:29;;;;;;;8.43;7.20;;;;;;;;;;5072563;28;20048;-61
2023/10/26 12:47:55;;;;;;;7.63;6.82;;;;;;;;;;5072345;28;20056;-61
2023/10/26 12:50:22;;;;;;;8.18;6.68;;;;;;;;;;5075295;28;20052;-62
2023/10/26 12:52:49;;;;;;;7.30;6.50;;;;;;;;;;5089479;28;20495;-61
2023/10/26 12:55:16;;;;;;;9.10;7.55;;;;;;;;;;5092778;28;20056;-61
2023/10/26 12:57:44;;;;;;;11.30;7.60;;;;;;;;;;5091038;28;20055;-61
2023/10/26 13:00:11;;;;;;;8.50;7.35;;;;;;;;;;5092429;28;20474;-61
2023/10/26 13:02:39;;;;;;;9.05;7.18;;;;;;;;;;5093279;28;20397;-60
2023/10/26 13:05:06;;;;;;;12.65;9.70;;;;;;;;;;5072807;28;20061;-61
2023/10/26 13:07:33;;;;;;;4.28;3.88;;;;;;;;;;5072304;28;20505;-61
2023/10/26 13:10:00;;;;;;;5.43;4.93;;;;;;;;;;5072283;28;20048;-61
2023/10/26 13:12:27;;;;;;;4.85;3.05;;;;;;;;;;5072476;28;20054;-61
2023/10/26 13:14:54;;;;;;;3.60;3.05;;;;;;;;;;5091081;28;20052;-61
2023/10/26 13:17:21;;;;;;;4.50;2.80;;;;;;;;;;5092728;28;20048;-61
2023/10/26 13:19:49;;;;;;;4.00;3.13;;;;;;;;;;5092799;28;20052;-61
2023/10/26 13:22:15;;;;;;;3.38;2.80;;;;;;;;;;5092543;28;20047;-61
2023/10/26 13:24:42;;;;;;;4.20;3.00;;;;;;;;;;5092772;28;20056;-60
2023/10/26 13:27:09;;;;;;;3.15;2.63;;;;;;;;;;5092566;28;20465;-61
2023/10/26 13:29:36;;;;;;;3.50;3.20;;;;;;;;;;5074791;28;20052;-61
2023/10/26 13:32:03;;;;;;;4.93;3.65;;;;;;;;;;5072577;28;20063;-61
2023/10/26 13:34:29;;;;;;;3.15;2.67;;;;;;;;;;5072738;28;20052;-60
2023/10/26 13:36:58;;;;;;;3.17;2.80;;;;;;;;;;5072154;28;20056;-60
2023/10/26 13:39:24;;;;;;;3.03;2.72;;;;;;;;;;5084587;28;20052;-61
2023/10/26 13:41:51;;;;;;;2.80;2.55;;;;;;;;;;5092383;28;20048;-60
2023/10/26 13:44:18;;;;;;;3.40;3.10;;;;;;;;;;5075373;28;20052;-61
2023/10/26 13:46:45;;;;;;;3.55;2.72;;;;;;;;;;5072028;28;20386;-61
2023/10/26 13:49:12;;;;;;;2.88;2.65;;;;;;;;;;5071744;28;20053;-61
2023/10/26 13:51:39;;;;;;;2.97;2.67;;;;;;;;;;5083469;28;20048;-60
2023/10/26 13:54:07;;;;;;;4.05;3.67;;;;;;;;;;5092561;28;20056;-61
2023/10/26 13:56:34;;;;;;;3.40;3.10;;;;;;;;;;5091900;28;20405;-61
2023/10/26 13:59:01;;;;;;;4.20;3.80;;;;;;;;;;5090425;28;20052;-61
2023/10/26 14:01:28;;;;;;;5.25;4.85;;;;;;;;;;5091941;28;20105;-61
2023/10/26 14:03:56;;;;;;;3.92;3.22;;;;;;;;;;5092069;28;20493;-61
2023/10/26 14:06:24;;;;;;;4.43;3.38;;;;;;;;;;5091528;28;20481;-62
2023/10/26 14:08:51;;;;;;;25.88;23.50;;;;;;;;;;5072636;28;20063;-61
2023/10/26 14:11:19;;;;;;;10.73;8.57;;;;;;;;;;5075431;28;20051;-60
2023/10/26 14:13:46;;;;;;;5.35;3.58;;;;;;;;;;5077854;28;20113;-61
2023/10/26 14:16:14;;;;;;;4.93;3.20;;;;;;;;;;5075470;28;20478;-60
2023/10/26 14:18:41;;;;;;;3.05;2.70;;;;;;;;;;5092920;28;20040;-60
2023/10/26 14:21:08;;;;;;;2.47;2.28;;;;;;;;;;5116648;28;20055;-61
2023/10/26 14:23:34;;;;;;;2.58;2.38;;;;;;;;;;5116394;28;20051;-61
2023/10/26 14:26:01;;;;;;;4.53;3.08;;;;;;;;;;5093935;28;20049;-61